sensor_id;sensor_type;location;lat;lon;timestamp;P1;durP1;ratioP1;P2;durP2;ratioP2
58083;SDS011;43882;51.550;11.858;2023-07-24T00:02:09;10.05;;;2.22;;
58083;SDS011;43882;51.550;11.858;2023-07-24T00:04:35;5.97;;;1.88;;
58083;SDS011;43882;51.550;11.858;2023-07-24T00:07:01;7.72;;;2.05;;
58083;SDS011;43882;51.550;11.858;2023-07-24T00:09:27;8.43;;;2.10;;
58083;SDS011;43882;51.550;11.858;2023-07-24T00:11:53;9.15;;;2.10;;
58083;SDS011;43882;51.550;11.858;2023-07-24T00:14:20;8.95;;;2.10;;
58083;SDS011;43882;51.550;11.858;2023-07-24T00:16:46;7.88;;;2.00;;
58083;SDS011;43882;51.550;11.858;2023-07-24T00:19:12;8.90;;;2.03;;
58083;SDS011;43882;51.550;11.858;2023-07-24T00:21:38;9.65;;;2.17;;
58083;SDS011;43882;51.550;11.858;2023-07-24T00:24:04;7.70;;;2.00;;
58083;SDS011;43882;51.550;11.858;2023-07-24T00:26:30;7.82;;;2.05;;
58083;SDS011;43882;51.550;11.858;2023-07-24T00:28:56;7.38;;;1.80;;
58083;SDS011;43882;51.550;11.858;2023-07-24T00:31:24;8.80;;;2.03;;
58083;SDS011;43882;51.550;11.858;2023-07-24T00:33:50;7.50;;;1.90;;
58083;SDS011;43882;51.550;11.858;2023-07-24T00:36:16;6.88;;;1.85;;
58083;SDS011;43882;51.550;11.858;2023-07-24T00:38:42;10.85;;;2.28;;
58083;SDS011;43882;51.550;11.858;2023-07-24T00:41:08;9.23;;;2.10;;
58083;SDS011;43882;51.550;11.858;2023-07-24T00:43:34;9.18;;;2.20;;
58083;SDS011;43882;51.550;11.858;2023-07-24T00:46:00;5.72;;;1.95;;
58083;SDS011;43882;51.550;11.858;2023-07-24T00:48:28;9.07;;;2.15;;
58083;SDS011;43882;51.550;11.858;2023-07-24T00:50:54;8.73;;;2.03;;
58083;SDS011;43882;51.550;11.858;2023-07-24T00:53:20;6.95;;;2.00;;
58083;SDS011;43882;51.550;11.858;2023-07-24T00:55:46;9.10;;;2.10;;
58083;SDS011;43882;51.550;11.858;2023-07-24T00:58:12;6.82;;;1.80;;
58083;SDS011;43882;51.550;11.858;2023-07-24T01:00:39;9.25;;;2.15;;
58083;SDS011;43882;51.550;11.858;2023-07-24T01:03:06;5.97;;;1.92;;
58083;SDS011;43882;51.550;11.858;2023-07-24T01:05:32;8.05;;;1.95;;
58083;SDS011;43882;51.550;11.858;2023-07-24T01:07:58;7.63;;;2.05;;
58083;SDS011;43882;51.550;11.858;2023-07-24T01:10:24;8.32;;;2.00;;
58083;SDS011;43882;51.550;11.858;2023-07-24T01:13:10;4.68;;;1.65;;
58083;SDS011;43882;51.550;11.858;2023-07-24T01:15:44;8.88;;;2.35;;
58083;SDS011;43882;51.550;11.858;2023-07-24T01:18:13;7.00;;;1.73;;
58083;SDS011;43882;51.550;11.858;2023-07-24T01:20:43;9.48;;;2.17;;
58083;SDS011;43882;51.550;11.858;2023-07-24T01:23:37;7.43;;;1.90;;
58083;SDS011;43882;51.550;11.858;2023-07-24T01:26:17;7.75;;;2.08;;
58083;SDS011;43882;51.550;11.858;2023-07-24T01:28:44;7.78;;;2.00;;
58083;SDS011;43882;51.550;11.858;2023-07-24T01:31:11;4.80;;;1.73;;
58083;SDS011;43882;51.550;11.858;2023-07-24T01:33:37;6.10;;;2.00;;
58083;SDS011;43882;51.550;11.858;2023-07-24T01:36:04;7.05;;;2.10;;
58083;SDS011;43882;51.550;11.858;2023-07-24T01:38:31;9.43;;;2.13;;
58083;SDS011;43882;51.550;11.858;2023-07-24T01:40:57;7.18;;;1.90;;
58083;SDS011;43882;51.550;11.858;2023-07-24T01:43:24;7.93;;;1.90;;
58083;SDS011;43882;51.550;11.858;2023-07-24T01:45:52;8.73;;;2.05;;
58083;SDS011;43882;51.550;11.858;2023-07-24T01:48:18;7.88;;;2.00;;
58083;SDS011;43882;51.550;11.858;2023-07-24T01:50:44;7.32;;;2.03;;
58083;SDS011;43882;51.550;11.858;2023-07-24T01:53:10;8.48;;;2.03;;
58083;SDS011;43882;51.550;11.858;2023-07-24T01:55:36;8.90;;;1.98;;
58083;SDS011;43882;51.550;11.858;2023-07-24T01:58:02;7.03;;;2.08;;
58083;SDS011;43882;51.550;11.858;2023-07-24T02:00:28;8.35;;;3.08;;
58083;SDS011;43882;51.550;11.858;2023-07-24T02:02:54;6.20;;;1.67;;
58083;SDS011;43882;51.550;11.858;2023-07-24T02:05:22;7.15;;;2.08;;
58083;SDS011;43882;51.550;11.858;2023-07-24T02:07:48;6.25;;;1.98;;
58083;SDS011;43882;51.550;11.858;2023-07-24T02:10:14;5.70;;;1.90;;
58083;SDS011;43882;51.550;11.858;2023-07-24T02:12:40;7.07;;;2.00;;
58083;SDS011;43882;51.550;11.858;2023-07-24T02:15:06;8.15;;;2.10;;
58083;SDS011;43882;51.550;11.858;2023-07-24T02:17:33;7.78;;;2.30;;
58083;SDS011;43882;51.550;11.858;2023-07-24T02:19:59;8.20;;;2.13;;
58083;SDS011;43882;51.550;11.858;2023-07-24T02:22:25;8.52;;;1.98;;
58083;SDS011;43882;51.550;11.858;2023-07-24T02:24:51;7.50;;;1.90;;
58083;SDS011;43882;51.550;11.858;2023-07-24T02:27:27;7.13;;;2.08;;
58083;SDS011;43882;51.550;11.858;2023-07-24T02:29:56;8.52;;;2.10;;
58083;SDS011;43882;51.550;11.858;2023-07-24T02:32:22;6.07;;;1.95;;
58083;SDS011;43882;51.550;11.858;2023-07-24T02:34:51;8.82;;;2.10;;
58083;SDS011;43882;51.550;11.858;2023-07-24T02:37:18;8.20;;;2.10;;
58083;SDS011;43882;51.550;11.858;2023-07-24T02:39:44;8.75;;;2.08;;
58083;SDS011;43882;51.550;11.858;2023-07-24T02:42:11;7.20;;;2.00;;
58083;SDS011;43882;51.550;11.858;2023-07-24T02:44:37;6.60;;;2.05;;
58083;SDS011;43882;51.550;11.858;2023-07-24T02:47:03;10.02;;;2.30;;
58083;SDS011;43882;51.550;11.858;2023-07-24T02:49:29;7.03;;;2.15;;
58083;SDS011;43882;51.550;11.858;2023-07-24T02:51:55;7.75;;;2.00;;
58083;SDS011;43882;51.550;11.858;2023-07-24T02:54:21;7.97;;;1.83;;
58083;SDS011;43882;51.550;11.858;2023-07-24T02:56:47;7.18;;;2.08;;
58083;SDS011;43882;51.550;11.858;2023-07-24T02:59:13;9.25;;;2.05;;
58083;SDS011;43882;51.550;11.858;2023-07-24T03:01:39;6.55;;;1.90;;
58083;SDS011;43882;51.550;11.858;2023-07-24T03:04:06;7.10;;;1.90;;
58083;SDS011;43882;51.550;11.858;2023-07-24T03:06:32;7.55;;;2.10;;
58083;SDS011;43882;51.550;11.858;2023-07-24T03:08:58;7.03;;;2.00;;
58083;SDS011;43882;51.550;11.858;2023-07-24T03:11:24;9.40;;;2.30;;
58083;SDS011;43882;51.550;11.858;2023-07-24T03:13:50;9.15;;;2.20;;
58083;SDS011;43882;51.550;11.858;2023-07-24T03:16:16;7.80;;;2.10;;
58083;SDS011;43882;51.550;11.858;2023-07-24T03:18:44;7.60;;;2.20;;
58083;SDS011;43882;51.550;11.858;2023-07-24T03:21:10;7.40;;;2.05;;
58083;SDS011;43882;51.550;11.858;2023-07-24T03:23:36;6.22;;;1.85;;
58083;SDS011;43882;51.550;11.858;2023-07-24T03:26:02;8.70;;;2.20;;
58083;SDS011;43882;51.550;11.858;2023-07-24T03:28:29;9.68;;;2.15;;
58083;SDS011;43882;51.550;11.858;2023-07-24T03:30:55;7.97;;;2.10;;
58083;SDS011;43882;51.550;11.858;2023-07-24T03:33:21;8.57;;;2.15;;
58083;SDS011;43882;51.550;11.858;2023-07-24T03:35:47;7.43;;;1.80;;
58083;SDS011;43882;51.550;11.858;2023-07-24T03:38:13;10.05;;;2.38;;
58083;SDS011;43882;51.550;11.858;2023-07-24T03:40:39;9.98;;;2.20;;
58083;SDS011;43882;51.550;11.858;2023-07-24T03:43:05;7.63;;;2.17;;
58083;SDS011;43882;51.550;11.858;2023-07-24T03:45:31;7.60;;;1.92;;
58083;SDS011;43882;51.550;11.858;2023-07-24T03:47:57;8.55;;;2.20;;
58083;SDS011;43882;51.550;11.858;2023-07-24T03:50:23;7.78;;;2.10;;
58083;SDS011;43882;51.550;11.858;2023-07-24T03:52:49;6.35;;;2.03;;
58083;SDS011;43882;51.550;11.858;2023-07-24T03:55:15;9.75;;;2.40;;
58083;SDS011;43882;51.550;11.858;2023-07-24T03:57:41;8.68;;;2.20;;
58083;SDS011;43882;51.550;11.858;2023-07-24T04:00:08;7.85;;;2.20;;
58083;SDS011;43882;51.550;11.858;2023-07-24T04:02:34;10.35;;;2.40;;
58083;SDS011;43882;51.550;11.858;2023-07-24T04:05:00;5.95;;;1.90;;
58083;SDS011;43882;51.550;11.858;2023-07-24T04:07:26;9.02;;;2.30;;
58083;SDS011;43882;51.550;11.858;2023-07-24T04:09:52;8.40;;;2.25;;
58083;SDS011;43882;51.550;11.858;2023-07-24T04:12:19;8.65;;;2.20;;
58083;SDS011;43882;51.550;11.858;2023-07-24T04:14:45;8.23;;;2.17;;
58083;SDS011;43882;51.550;11.858;2023-07-24T04:17:11;9.52;;;2.60;;
58083;SDS011;43882;51.550;11.858;2023-07-24T04:19:37;8.10;;;2.17;;
58083;SDS011;43882;51.550;11.858;2023-07-24T04:22:03;9.05;;;2.28;;
58083;SDS011;43882;51.550;11.858;2023-07-24T04:24:29;10.23;;;2.33;;
58083;SDS011;43882;51.550;11.858;2023-07-24T04:26:55;9.70;;;2.35;;
58083;SDS011;43882;51.550;11.858;2023-07-24T04:29:21;6.45;;;1.98;;
58083;SDS011;43882;51.550;11.858;2023-07-24T04:31:50;9.80;;;2.00;;
58083;SDS011;43882;51.550;11.858;2023-07-24T04:34:16;8.38;;;2.10;;
58083;SDS011;43882;51.550;11.858;2023-07-24T04:36:43;9.38;;;2.25;;
58083;SDS011;43882;51.550;11.858;2023-07-24T04:39:09;7.32;;;2.22;;
58083;SDS011;43882;51.550;11.858;2023-07-24T04:41:35;6.10;;;1.90;;
58083;SDS011;43882;51.550;11.858;2023-07-24T04:44:01;9.20;;;2.10;;
58083;SDS011;43882;51.550;11.858;2023-07-24T04:46:27;7.22;;;2.17;;
58083;SDS011;43882;51.550;11.858;2023-07-24T04:48:54;8.07;;;2.10;;
58083;SDS011;43882;51.550;11.858;2023-07-24T04:51:20;10.57;;;2.47;;
58083;SDS011;43882;51.550;11.858;2023-07-24T04:53:46;10.25;;;2.47;;
58083;SDS011;43882;51.550;11.858;2023-07-24T04:56:12;10.30;;;2.25;;
58083;SDS011;43882;51.550;11.858;2023-07-24T04:58:38;8.40;;;2.13;;
58083;SDS011;43882;51.550;11.858;2023-07-24T05:01:04;8.27;;;2.20;;
58083;SDS011;43882;51.550;11.858;2023-07-24T05:03:31;7.93;;;2.50;;
58083;SDS011;43882;51.550;11.858;2023-07-24T05:05:57;9.63;;;2.40;;
58083;SDS011;43882;51.550;11.858;2023-07-24T05:08:23;8.75;;;2.50;;
58083;SDS011;43882;51.550;11.858;2023-07-24T05:10:56;8.20;;;2.25;;
58083;SDS011;43882;51.550;11.858;2023-07-24T05:13:23;9.43;;;2.40;;
58083;SDS011;43882;51.550;11.858;2023-07-24T05:15:50;11.52;;;2.53;;
58083;SDS011;43882;51.550;11.858;2023-07-24T05:18:16;8.77;;;2.20;;
58083;SDS011;43882;51.550;11.858;2023-07-24T05:20:42;9.75;;;2.40;;
58083;SDS011;43882;51.550;11.858;2023-07-24T05:23:12;7.28;;;2.10;;
58083;SDS011;43882;51.550;11.858;2023-07-24T05:25:38;9.40;;;2.42;;
58083;SDS011;43882;51.550;11.858;2023-07-24T05:28:05;13.43;;;2.60;;
58083;SDS011;43882;51.550;11.858;2023-07-24T05:30:32;10.23;;;2.47;;
58083;SDS011;43882;51.550;11.858;2023-07-24T05:32:58;11.85;;;2.40;;
58083;SDS011;43882;51.550;11.858;2023-07-24T05:35:24;10.95;;;2.70;;
58083;SDS011;43882;51.550;11.858;2023-07-24T05:37:50;11.00;;;2.75;;
58083;SDS011;43882;51.550;11.858;2023-07-24T05:40:16;10.02;;;2.50;;
58083;SDS011;43882;51.550;11.858;2023-07-24T05:42:42;13.05;;;3.00;;
58083;SDS011;43882;51.550;11.858;2023-07-24T05:45:09;10.77;;;2.55;;
58083;SDS011;43882;51.550;11.858;2023-07-24T05:47:39;10.43;;;2.72;;
58083;SDS011;43882;51.550;11.858;2023-07-24T05:50:05;12.63;;;2.78;;
58083;SDS011;43882;51.550;11.858;2023-07-24T05:52:32;15.13;;;3.10;;
58083;SDS011;43882;51.550;11.858;2023-07-24T05:54:58;13.02;;;2.90;;
58083;SDS011;43882;51.550;11.858;2023-07-24T05:57:24;13.05;;;3.05;;
58083;SDS011;43882;51.550;11.858;2023-07-24T05:59:50;11.50;;;2.70;;
58083;SDS011;43882;51.550;11.858;2023-07-24T06:02:17;11.07;;;2.65;;
58083;SDS011;43882;51.550;11.858;2023-07-24T06:04:43;13.75;;;2.90;;
58083;SDS011;43882;51.550;11.858;2023-07-24T06:07:09;11.45;;;3.00;;
58083;SDS011;43882;51.550;11.858;2023-07-24T06:09:35;11.65;;;2.83;;
58083;SDS011;43882;51.550;11.858;2023-07-24T06:12:01;14.18;;;3.00;;
58083;SDS011;43882;51.550;11.858;2023-07-24T06:14:27;11.85;;;3.08;;
58083;SDS011;43882;51.550;11.858;2023-07-24T06:16:53;13.75;;;3.05;;
58083;SDS011;43882;51.550;11.858;2023-07-24T06:19:19;11.60;;;3.08;;
58083;SDS011;43882;51.550;11.858;2023-07-24T06:21:46;11.45;;;3.00;;
58083;SDS011;43882;51.550;11.858;2023-07-24T06:24:12;15.05;;;3.10;;
58083;SDS011;43882;51.550;11.858;2023-07-24T06:26:38;13.38;;;3.10;;
58083;SDS011;43882;51.550;11.858;2023-07-24T06:29:05;12.30;;;3.10;;
58083;SDS011;43882;51.550;11.858;2023-07-24T06:31:31;12.45;;;2.95;;
58083;SDS011;43882;51.550;11.858;2023-07-24T06:33:57;13.02;;;3.15;;
58083;SDS011;43882;51.550;11.858;2023-07-24T06:36:23;15.32;;;3.15;;
58083;SDS011;43882;51.550;11.858;2023-07-24T06:38:49;12.32;;;3.13;;
58083;SDS011;43882;51.550;11.858;2023-07-24T06:41:15;12.63;;;3.00;;
58083;SDS011;43882;51.550;11.858;2023-07-24T06:43:41;15.82;;;3.38;;
58083;SDS011;43882;51.550;11.858;2023-07-24T06:46:08;14.40;;;3.80;;
58083;SDS011;43882;51.550;11.858;2023-07-24T06:48:34;11.65;;;3.10;;
58083;SDS011;43882;51.550;11.858;2023-07-24T06:51:00;13.27;;;3.28;;
58083;SDS011;43882;51.550;11.858;2023-07-24T06:53:26;17.02;;;3.67;;
58083;SDS011;43882;51.550;11.858;2023-07-24T06:55:52;15.02;;;3.10;;
58083;SDS011;43882;51.550;11.858;2023-07-24T06:58:18;16.20;;;3.35;;
58083;SDS011;43882;51.550;11.858;2023-07-24T07:00:44;13.77;;;3.13;;
58083;SDS011;43882;51.550;11.858;2023-07-24T07:03:10;16.33;;;3.17;;
58083;SDS011;43882;51.550;11.858;2023-07-24T07:05:36;12.75;;;3.03;;
58083;SDS011;43882;51.550;11.858;2023-07-24T07:08:02;15.55;;;3.50;;
58083;SDS011;43882;51.550;11.858;2023-07-24T07:10:30;17.45;;;3.80;;
58083;SDS011;43882;51.550;11.858;2023-07-24T07:12:56;14.25;;;2.92;;
58083;SDS011;43882;51.550;11.858;2023-07-24T07:15:22;14.02;;;3.17;;
58083;SDS011;43882;51.550;11.858;2023-07-24T07:17:49;13.43;;;3.10;;
58083;SDS011;43882;51.550;11.858;2023-07-24T07:20:15;14.18;;;3.20;;
58083;SDS011;43882;51.550;11.858;2023-07-24T07:22:41;11.23;;;3.13;;
58083;SDS011;43882;51.550;11.858;2023-07-24T07:25:07;16.33;;;3.17;;
58083;SDS011;43882;51.550;11.858;2023-07-24T07:27:33;13.45;;;3.00;;
58083;SDS011;43882;51.550;11.858;2023-07-24T07:30:00;14.02;;;2.95;;
58083;SDS011;43882;51.550;11.858;2023-07-24T07:32:26;12.23;;;3.05;;
58083;SDS011;43882;51.550;11.858;2023-07-24T07:34:52;13.23;;;3.47;;
58083;SDS011;43882;51.550;11.858;2023-07-24T07:37:18;20.73;;;4.20;;
58083;SDS011;43882;51.550;11.858;2023-07-24T07:39:44;15.52;;;3.28;;
58083;SDS011;43882;51.550;11.858;2023-07-24T07:42:10;13.18;;;3.28;;
58083;SDS011;43882;51.550;11.858;2023-07-24T07:44:36;14.68;;;3.38;;
58083;SDS011;43882;51.550;11.858;2023-07-24T07:47:02;17.50;;;3.83;;
58083;SDS011;43882;51.550;11.858;2023-07-24T07:49:29;14.10;;;4.07;;
58083;SDS011;43882;51.550;11.858;2023-07-24T07:51:55;16.85;;;3.60;;
58083;SDS011;43882;51.550;11.858;2023-07-24T07:54:21;13.20;;;3.20;;
58083;SDS011;43882;51.550;11.858;2023-07-24T07:56:47;20.55;;;4.43;;
58083;SDS011;43882;51.550;11.858;2023-07-24T07:59:13;16.35;;;3.60;;
58083;SDS011;43882;51.550;11.858;2023-07-24T08:01:39;16.98;;;3.10;;
58083;SDS011;43882;51.550;11.858;2023-07-24T08:04:07;15.95;;;3.55;;
58083;SDS011;43882;51.550;11.858;2023-07-24T08:06:33;18.30;;;3.92;;
58083;SDS011;43882;51.550;11.858;2023-07-24T08:08:59;18.30;;;3.72;;
58083;SDS011;43882;51.550;11.858;2023-07-24T08:11:25;16.55;;;3.67;;
58083;SDS011;43882;51.550;11.858;2023-07-24T08:13:51;13.55;;;3.47;;
58083;SDS011;43882;51.550;11.858;2023-07-24T08:16:17;17.42;;;3.80;;
58083;SDS011;43882;51.550;11.858;2023-07-24T08:18:45;14.35;;;3.70;;
58083;SDS011;43882;51.550;11.858;2023-07-24T08:21:12;13.05;;;3.65;;
58083;SDS011;43882;51.550;11.858;2023-07-24T08:23:38;16.13;;;3.80;;
58083;SDS011;43882;51.550;11.858;2023-07-24T08:26:05;13.50;;;3.45;;
58083;SDS011;43882;51.550;11.858;2023-07-24T08:28:32;18.17;;;3.60;;
58083;SDS011;43882;51.550;11.858;2023-07-24T08:31:00;16.38;;;3.55;;
58083;SDS011;43882;51.550;11.858;2023-07-24T08:33:27;14.68;;;3.42;;
58083;SDS011;43882;51.550;11.858;2023-07-24T08:35:58;16.13;;;3.58;;
58083;SDS011;43882;51.550;11.858;2023-07-24T08:38:28;14.38;;;3.83;;
58083;SDS011;43882;51.550;11.858;2023-07-24T08:41:01;13.80;;;3.47;;
58083;SDS011;43882;51.550;11.858;2023-07-24T08:43:27;14.57;;;3.50;;
58083;SDS011;43882;51.550;11.858;2023-07-24T08:45:55;18.23;;;3.92;;
58083;SDS011;43882;51.550;11.858;2023-07-24T08:48:22;15.80;;;3.70;;
58083;SDS011;43882;51.550;11.858;2023-07-24T08:50:50;19.42;;;3.92;;
58083;SDS011;43882;51.550;11.858;2023-07-24T08:53:16;13.52;;;3.70;;
58083;SDS011;43882;51.550;11.858;2023-07-24T08:55:43;15.80;;;4.30;;
58083;SDS011;43882;51.550;11.858;2023-07-24T08:58:11;12.85;;;3.55;;
58083;SDS011;43882;51.550;11.858;2023-07-24T09:00:37;14.00;;;4.22;;
58083;SDS011;43882;51.550;11.858;2023-07-24T09:03:04;16.58;;;3.80;;
58083;SDS011;43882;51.550;11.858;2023-07-24T09:05:30;16.15;;;4.00;;
58083;SDS011;43882;51.550;11.858;2023-07-24T09:07:56;15.60;;;4.15;;
58083;SDS011;43882;51.550;11.858;2023-07-24T09:10:25;17.15;;;4.18;;
58083;SDS011;43882;51.550;11.858;2023-07-24T09:12:52;21.17;;;4.60;;
58083;SDS011;43882;51.550;11.858;2023-07-24T09:15:18;15.40;;;3.85;;
58083;SDS011;43882;51.550;11.858;2023-07-24T09:17:50;30.48;;;5.90;;
58083;SDS011;43882;51.550;11.858;2023-07-24T09:20:18;15.30;;;3.90;;
58083;SDS011;43882;51.550;11.858;2023-07-24T09:22:48;20.20;;;4.43;;
58083;SDS011;43882;51.550;11.858;2023-07-24T09:25:14;14.57;;;3.83;;
58083;SDS011;43882;51.550;11.858;2023-07-24T09:27:40;24.02;;;4.78;;
58083;SDS011;43882;51.550;11.858;2023-07-24T09:30:16;21.80;;;4.80;;
58083;SDS011;43882;51.550;11.858;2023-07-24T09:32:51;18.50;;;4.50;;
58083;SDS011;43882;51.550;11.858;2023-07-24T09:35:20;15.43;;;4.00;;
58083;SDS011;43882;51.550;11.858;2023-07-24T09:38:01;17.60;;;4.28;;
58083;SDS011;43882;51.550;11.858;2023-07-24T09:40:28;15.20;;;3.97;;
58083;SDS011;43882;51.550;11.858;2023-07-24T09:43:02;16.92;;;4.32;;
58083;SDS011;43882;51.550;11.858;2023-07-24T09:45:28;20.17;;;4.25;;
58083;SDS011;43882;51.550;11.858;2023-07-24T09:47:54;20.60;;;5.13;;
58083;SDS011;43882;51.550;11.858;2023-07-24T09:50:25;15.80;;;4.03;;
58083;SDS011;43882;51.550;11.858;2023-07-24T09:52:51;17.00;;;4.43;;
58083;SDS011;43882;51.550;11.858;2023-07-24T09:55:38;28.70;;;5.28;;
58083;SDS011;43882;51.550;11.858;2023-07-24T09:58:23;16.52;;;4.65;;
58083;SDS011;43882;51.550;11.858;2023-07-24T10:00:51;16.77;;;4.43;;
58083;SDS011;43882;51.550;11.858;2023-07-24T10:03:17;17.55;;;4.30;;
58083;SDS011;43882;51.550;11.858;2023-07-24T10:05:45;16.63;;;4.40;;
58083;SDS011;43882;51.550;11.858;2023-07-24T10:08:11;15.32;;;4.22;;
58083;SDS011;43882;51.550;11.858;2023-07-24T10:10:39;17.52;;;4.68;;
58083;SDS011;43882;51.550;11.858;2023-07-24T10:13:05;16.15;;;5.07;;
58083;SDS011;43882;51.550;11.858;2023-07-24T10:15:32;16.35;;;4.53;;
58083;SDS011;43882;51.550;11.858;2023-07-24T10:18:02;17.25;;;4.25;;
58083;SDS011;43882;51.550;11.858;2023-07-24T10:20:36;16.42;;;4.63;;
58083;SDS011;43882;51.550;11.858;2023-07-24T10:23:06;14.75;;;4.40;;
58083;SDS011;43882;51.550;11.858;2023-07-24T10:25:37;16.13;;;4.30;;
58083;SDS011;43882;51.550;11.858;2023-07-24T10:28:08;14.98;;;4.07;;
58083;SDS011;43882;51.550;11.858;2023-07-24T10:30:37;18.80;;;4.57;;
58083;SDS011;43882;51.550;11.858;2023-07-24T10:35:43;15.27;;;4.47;;
58083;SDS011;43882;51.550;11.858;2023-07-24T10:38:14;15.23;;;3.92;;
58083;SDS011;43882;51.550;11.858;2023-07-24T10:40:41;26.77;;;4.90;;
58083;SDS011;43882;51.550;11.858;2023-07-24T10:43:09;18.25;;;4.38;;
58083;SDS011;43882;51.550;11.858;2023-07-24T10:48:06;16.63;;;4.32;;
58083;SDS011;43882;51.550;11.858;2023-07-24T10:50:36;20.00;;;4.60;;
58083;SDS011;43882;51.550;11.858;2023-07-24T10:53:07;22.33;;;5.10;;
58083;SDS011;43882;51.550;11.858;2023-07-24T10:55:38;14.93;;;4.37;;
58083;SDS011;43882;51.550;11.858;2023-07-24T10:58:05;19.25;;;5.03;;
58083;SDS011;43882;51.550;11.858;2023-07-24T11:00:32;17.30;;;5.10;;
58083;SDS011;43882;51.550;11.858;2023-07-24T11:02:58;18.98;;;4.85;;
58083;SDS011;43882;51.550;11.858;2023-07-24T11:05:24;19.58;;;5.22;;
58083;SDS011;43882;51.550;11.858;2023-07-24T11:07:50;17.70;;;4.68;;
58083;SDS011;43882;51.550;11.858;2023-07-24T11:10:17;16.02;;;4.45;;
58083;SDS011;43882;51.550;11.858;2023-07-24T11:12:44;24.17;;;6.05;;
58083;SDS011;43882;51.550;11.858;2023-07-24T11:15:11;18.92;;;4.40;;
58083;SDS011;43882;51.550;11.858;2023-07-24T11:17:38;24.92;;;5.38;;
58083;SDS011;43882;51.550;11.858;2023-07-24T11:20:09;17.48;;;5.43;;
58083;SDS011;43882;51.550;11.858;2023-07-24T11:22:40;19.05;;;5.30;;
58083;SDS011;43882;51.550;11.858;2023-07-24T11:25:08;16.67;;;4.65;;
58083;SDS011;43882;51.550;11.858;2023-07-24T11:27:41;19.60;;;5.55;;
58083;SDS011;43882;51.550;11.858;2023-07-24T11:30:12;14.80;;;4.40;;
58083;SDS011;43882;51.550;11.858;2023-07-24T11:32:43;19.90;;;5.40;;
58083;SDS011;43882;51.550;11.858;2023-07-24T11:35:09;31.33;;;5.93;;
58083;SDS011;43882;51.550;11.858;2023-07-24T11:37:36;29.42;;;6.13;;
58083;SDS011;43882;51.550;11.858;2023-07-24T11:40:03;21.05;;;4.85;;
58083;SDS011;43882;51.550;11.858;2023-07-24T11:42:33;22.10;;;4.47;;
58083;SDS011;43882;51.550;11.858;2023-07-24T11:45:03;17.70;;;4.45;;
58083;SDS011;43882;51.550;11.858;2023-07-24T11:47:30;17.02;;;5.00;;
58083;SDS011;43882;51.550;11.858;2023-07-24T11:49:56;19.58;;;4.68;;
58083;SDS011;43882;51.550;11.858;2023-07-24T11:52:25;18.00;;;4.68;;
58083;SDS011;43882;51.550;11.858;2023-07-24T11:54:57;18.58;;;5.40;;
58083;SDS011;43882;51.550;11.858;2023-07-24T11:57:26;17.17;;;4.40;;
58083;SDS011;43882;51.550;11.858;2023-07-24T11:59:53;14.48;;;4.30;;
58083;SDS011;43882;51.550;11.858;2023-07-24T12:02:21;14.90;;;4.57;;
58083;SDS011;43882;51.550;11.858;2023-07-24T12:04:52;15.50;;;4.45;;
58083;SDS011;43882;51.550;11.858;2023-07-24T12:07:21;17.75;;;5.10;;
58083;SDS011;43882;51.550;11.858;2023-07-24T12:09:51;15.13;;;4.53;;
58083;SDS011;43882;51.550;11.858;2023-07-24T12:12:17;17.38;;;4.55;;
58083;SDS011;43882;51.550;11.858;2023-07-24T12:14:43;16.80;;;4.63;;
58083;SDS011;43882;51.550;11.858;2023-07-24T12:17:10;17.70;;;4.60;;
58083;SDS011;43882;51.550;11.858;2023-07-24T12:19:39;17.00;;;4.10;;
58083;SDS011;43882;51.550;11.858;2023-07-24T12:22:05;15.38;;;4.25;;
58083;SDS011;43882;51.550;11.858;2023-07-24T12:24:32;20.63;;;5.03;;
58083;SDS011;43882;51.550;11.858;2023-07-24T12:26:58;18.90;;;4.72;;
58083;SDS011;43882;51.550;11.858;2023-07-24T12:29:24;16.58;;;4.60;;
58083;SDS011;43882;51.550;11.858;2023-07-24T12:31:50;17.75;;;4.32;;
58083;SDS011;43882;51.550;11.858;2023-07-24T12:34:17;18.92;;;4.32;;
58083;SDS011;43882;51.550;11.858;2023-07-24T12:36:43;15.50;;;4.25;;
58083;SDS011;43882;51.550;11.858;2023-07-24T12:39:09;16.65;;;3.83;;
58083;SDS011;43882;51.550;11.858;2023-07-24T12:41:35;17.48;;;4.10;;
58083;SDS011;43882;51.550;11.858;2023-07-24T12:44:01;15.57;;;4.40;;
58083;SDS011;43882;51.550;11.858;2023-07-24T12:46:27;15.55;;;4.50;;
58083;SDS011;43882;51.550;11.858;2023-07-24T12:48:53;14.95;;;4.32;;
58083;SDS011;43882;51.550;11.858;2023-07-24T12:51:19;15.57;;;4.43;;
58083;SDS011;43882;51.550;11.858;2023-07-24T12:53:45;19.05;;;4.82;;
58083;SDS011;43882;51.550;11.858;2023-07-24T12:56:11;15.60;;;4.65;;
58083;SDS011;43882;51.550;11.858;2023-07-24T12:58:37;15.90;;;4.68;;
58083;SDS011;43882;51.550;11.858;2023-07-24T13:01:04;16.58;;;4.57;;
58083;SDS011;43882;51.550;11.858;2023-07-24T13:03:31;16.38;;;4.82;;
58083;SDS011;43882;51.550;11.858;2023-07-24T13:05:57;15.63;;;4.55;;
58083;SDS011;43882;51.550;11.858;2023-07-24T13:08:24;15.57;;;4.65;;
58083;SDS011;43882;51.550;11.858;2023-07-24T13:10:50;15.27;;;4.93;;
58083;SDS011;43882;51.550;11.858;2023-07-24T13:13:16;15.07;;;4.47;;
58083;SDS011;43882;51.550;11.858;2023-07-24T13:15:42;15.48;;;4.63;;
58083;SDS011;43882;51.550;11.858;2023-07-24T13:18:09;16.20;;;4.30;;
58083;SDS011;43882;51.550;11.858;2023-07-24T13:20:38;17.08;;;4.57;;
58083;SDS011;43882;51.550;11.858;2023-07-24T13:23:05;16.42;;;4.63;;
58083;SDS011;43882;51.550;11.858;2023-07-24T13:25:31;16.85;;;4.57;;
58083;SDS011;43882;51.550;11.858;2023-07-24T13:27:57;16.13;;;4.95;;
58083;SDS011;43882;51.550;11.858;2023-07-24T13:30:23;16.00;;;4.22;;
58083;SDS011;43882;51.550;11.858;2023-07-24T13:32:49;15.88;;;4.40;;
58083;SDS011;43882;51.550;11.858;2023-07-24T13:35:15;15.57;;;4.20;;
58083;SDS011;43882;51.550;11.858;2023-07-24T13:37:42;13.75;;;4.03;;
58083;SDS011;43882;51.550;11.858;2023-07-24T13:40:08;14.73;;;4.18;;
58083;SDS011;43882;51.550;11.858;2023-07-24T13:42:34;15.60;;;4.45;;
58083;SDS011;43882;51.550;11.858;2023-07-24T13:45:00;15.90;;;4.47;;
58083;SDS011;43882;51.550;11.858;2023-07-24T13:47:26;13.38;;;3.85;;
58083;SDS011;43882;51.550;11.858;2023-07-24T13:49:52;15.15;;;4.30;;
58083;SDS011;43882;51.550;11.858;2023-07-24T13:52:19;14.65;;;3.92;;
58083;SDS011;43882;51.550;11.858;2023-07-24T13:54:45;16.10;;;4.32;;
58083;SDS011;43882;51.550;11.858;2023-07-24T13:57:12;14.30;;;4.65;;
58083;SDS011;43882;51.550;11.858;2023-07-24T13:59:38;17.25;;;4.57;;
58083;SDS011;43882;51.550;11.858;2023-07-24T14:02:05;14.82;;;4.28;;
58083;SDS011;43882;51.550;11.858;2023-07-24T14:04:31;18.05;;;4.72;;
58083;SDS011;43882;51.550;11.858;2023-07-24T14:06:57;19.50;;;4.78;;
58083;SDS011;43882;51.550;11.858;2023-07-24T14:09:23;16.88;;;4.78;;
58083;SDS011;43882;51.550;11.858;2023-07-24T14:11:50;17.70;;;4.40;;
58083;SDS011;43882;51.550;11.858;2023-07-24T14:14:17;17.77;;;4.65;;
58083;SDS011;43882;51.550;11.858;2023-07-24T14:16:43;17.92;;;4.85;;
58083;SDS011;43882;51.550;11.858;2023-07-24T14:19:10;16.88;;;4.75;;
58083;SDS011;43882;51.550;11.858;2023-07-24T14:21:36;17.95;;;4.70;;
58083;SDS011;43882;51.550;11.858;2023-07-24T14:24:02;15.63;;;4.85;;
58083;SDS011;43882;51.550;11.858;2023-07-24T14:26:28;15.60;;;4.40;;
58083;SDS011;43882;51.550;11.858;2023-07-24T14:28:54;17.25;;;5.03;;
58083;SDS011;43882;51.550;11.858;2023-07-24T14:31:20;15.90;;;4.88;;